Time;durP1;ratioP1;P1;durP2;ratioP2;P2;SDS_P1;SDS_P2;PMS_P1;PMS_P2;Temp;Humidity;BMP_temperature;BMP_pressure;BME280_temperature;BME280_humidity;BME280_pressure;Samples;Min_cycle;Max_cycle;Signal;HPM_P1;HPM_P2
2023/04/19 00:00:34;;;;;;;1999.90;999.90;;;9.70;99.90;;;;;;5078961;28;20060;-82
2023/04/19 00:03:00;;;;;;;1999.90;999.90;;;9.70;99.90;;;;;;5078948;28;20039;-82
2023/04/19 00:05:25;;;;;;;1999.90;999.90;;;9.60;99.90;;;;;;5096505;28;20397;-82
2023/04/19 00:07:51;;;;;;;1999.90;999.90;;;9.60;99.90;;;;;;5078276;28;20032;-82
2023/04/19 00:10:16;;;;;;;1999.90;999.90;;;9.60;99.90;;;;;;5078249;28;20039;-82
2023/04/19 00:12:42;;;;;;;1999.90;999.90;;;9.50;99.90;;;;;;5078712;28;20025;-82
2023/04/19 00:15:08;;;;;;;1999.90;999.90;;;9.50;99.90;;;;;;5096494;28;20341;-82
2023/04/19 00:17:34;;;;;;;1999.90;999.90;;;9.50;99.90;;;;;;5078386;28;20060;-82
2023/04/19 00:20:00;;;;;;;1999.90;999.90;;;9.50;99.90;;;;;;5078284;28;20028;-82
2023/04/19 00:22:25;;;;;;;1999.90;999.90;;;9.50;99.90;;;;;;5096029;28;20040;-82
2023/04/19 00:24:52;;;;;;;1999.90;999.90;;;9.50;99.90;;;;;;5077759;28;20032;-82
2023/04/19 00:27:18;;;;;;;1999.90;999.90;;;9.50;99.90;;;;;;5109680;28;20044;-83
2023/04/19 00:29:46;;;;;;;1999.90;999.90;;;9.50;99.90;;;;;;5097995;28;20024;-83
2023/04/19 00:32:11;;;;;;;1999.90;999.90;;;9.50;99.90;;;;;;5117664;28;20036;-83
2023/04/19 00:34:37;;;;;;;1999.90;999.90;;;9.50;99.90;;;;;;5098894;28;20028;-82
2023/04/19 00:37:04;;;;;;;1999.90;999.90;;;9.50;99.90;;;;;;5117303;28;20497;-81
2023/04/19 00:39:29;;;;;;;1999.90;999.90;;;9.40;99.90;;;;;;5081455;28;20064;-81
2023/04/19 00:41:56;;;;;;;1999.90;999.90;;;9.50;99.90;;;;;;5078098;28;20056;-81
2023/04/19 00:44:22;;;;;;;1999.90;999.90;;;9.50;99.90;;;;;;5077773;28;20039;-81
2023/04/19 00:46:48;;;;;;;1999.90;999.90;;;9.40;99.90;;;;;;5078060;28;20051;-81
2023/04/19 00:49:15;;;;;;;1999.90;999.90;;;9.40;99.90;;;;;;5092364;28;20032;-81
2023/04/19 00:51:41;;;;;;;1999.90;999.90;;;9.40;99.90;;;;;;5098266;28;20035;-81
2023/04/19 00:54:08;;;;;;;1999.90;999.90;;;9.40;99.90;;;;;;5098255;28;20028;-81
2023/04/19 00:56:34;;;;;;;1999.90;999.90;;;9.40;99.90;;;;;;5093918;28;20040;-81
2023/04/19 00:59:03;;;;;;;1999.90;999.90;;;9.40;99.90;;;;;;5096937;28;20029;-81
2023/04/19 01:01:28;;;;;;;1999.90;999.90;;;9.50;99.90;;;;;;5078973;28;20041;-81
2023/04/19 01:03:54;;;;;;;1999.90;999.90;;;9.40;99.90;;;;;;5078348;28;20040;-81
2023/04/19 01:06:20;;;;;;;1999.90;999.90;;;9.40;99.90;;;;;;5078031;28;20082;-81
2023/04/19 01:08:48;;;;;;;1999.90;999.90;;;9.40;99.90;;;;;;5105899;28;20051;-81
2023/04/19 01:11:14;;;;;;;1999.90;999.90;;;9.40;99.90;;;;;;5098935;28;20485;-81
2023/04/19 01:13:39;;;;;;;1999.90;999.90;;;9.40;99.90;;;;;;5099088;28;20052;-81
2023/04/19 01:16:05;;;;;;;1999.90;999.90;;;9.40;99.90;;;;;;5098646;28;20085;-80
2023/04/19 01:18:36;;;;;;;1999.90;999.90;;;9.40;99.90;;;;;;5116965;28;20491;-79
2023/04/19 01:21:02;;;;;;;1999.90;999.90;;;9.40;99.90;;;;;;5099250;28;20524;-81
2023/04/19 01:23:28;;;;;;;1999.90;999.90;;;9.30;99.90;;;;;;5118396;28;20032;-81
2023/04/19 01:25:54;;;;;;;1999.90;999.90;;;9.30;99.90;;;;;;5117886;28;20044;-81
2023/04/19 01:28:20;;;;;;;1999.90;999.90;;;9.40;99.90;;;;;;5117872;28;20060;-81
2023/04/19 01:30:46;;;;;;;1999.90;999.90;;;9.40;99.90;;;;;;5117657;28;20565;-81
2023/04/19 01:33:11;;;;;;;1999.90;999.90;;;9.40;99.90;;;;;;5117286;28;20078;-81
2023/04/19 01:35:37;;;;;;;1999.90;999.90;;;9.30;99.90;;;;;;5117420;28;20505;-81
2023/04/19 01:38:04;;;;;;;1999.90;999.90;;;9.30;99.90;;;;;;5116901;28;20478;-81
2023/04/19 01:40:29;;;;;;;1999.90;999.90;;;9.30;99.90;;;;;;5099464;28;20036;-80
2023/04/19 01:42:55;;;;;;;1999.90;999.90;;;9.30;99.90;;;;;;5101018;28;20036;-81
2023/04/19 01:45:20;;;;;;;1999.90;999.90;;;9.30;99.90;;;;;;5114703;28;20433;-81
2023/04/19 01:47:46;;;;;;;1999.90;999.90;;;9.30;99.90;;;;;;5078551;28;20032;-81
2023/04/19 01:50:11;;;;;;;1999.90;999.90;;;9.30;99.90;;;;;;5078032;28;20051;-81
2023/04/19 01:52:37;;;;;;;1999.90;999.90;;;9.30;99.90;;;;;;5096496;28;20040;-81
2023/04/19 01:55:03;;;;;;;1999.90;999.90;;;9.30;99.90;;;;;;5096198;28;20502;-81
2023/04/19 01:57:28;;;;;;;1999.90;999.90;;;9.20;99.90;;;;;;5078860;28;20111;-81
2023/04/19 01:59:54;;;;;;;1999.90;999.90;;;9.30;99.90;;;;;;5117192;28;20036;-80
2023/04/19 02:02:20;;;;;;;1999.90;999.90;;;9.20;99.90;;;;;;5098816;28;20032;-81
2023/04/19 02:04:45;;;;;;;1999.90;999.90;;;9.20;99.90;;;;;;5098433;28;20043;-81
2023/04/19 02:07:11;;;;;;;1999.90;999.90;;;9.20;99.90;;;;;;5084194;28;20048;-81
2023/04/19 02:09:37;;;;;;;1999.90;999.90;;;9.20;99.90;;;;;;5096634;28;20035;-80
2023/04/19 02:12:04;;;;;;;1999.90;999.90;;;9.20;99.90;;;;;;5099113;28;20024;-81
2023/04/19 02:14:30;;;;;;;1999.90;999.90;;;9.20;99.90;;;;;;5090373;28;20039;-81
2023/04/19 02:16:55;;;;;;;1999.90;999.90;;;9.20;99.90;;;;;;5078854;28;20548;-80
2023/04/19 02:19:21;;;;;;;1999.90;999.90;;;9.20;99.90;;;;;;5094687;28;20055;-81
2023/04/19 02:21:47;;;;;;;1999.90;999.90;;;9.10;99.90;;;;;;5099442;28;20039;-81
2023/04/19 02:24:12;;;;;;;1999.90;999.90;;;9.20;99.90;;;;;;5098395;28;20107;-81
2023/04/19 02:26:38;;;;;;;1999.90;999.90;;;9.10;99.90;;;;;;5113303;28;20048;-80
2023/04/19 02:29:04;;;;;;;1999.90;999.90;;;9.10;99.90;;;;;;5083729;28;20099;-81
2023/04/19 02:31:30;;;;;;;1999.90;999.90;;;9.10;99.90;;;;;;5091286;28;20468;-80
2023/04/19 02:33:55;;;;;;;1999.90;999.90;;;9.10;99.90;;;;;;5118293;28;20032;-81
2023/04/19 02:36:21;;;;;;;1999.90;999.90;;;9.00;99.90;;;;;;5117716;28;20044;-81
2023/04/19 02:38:46;;;;;;;1999.90;999.90;;;9.00;99.90;;;;;;5117994;28;20581;-80
2023/04/19 02:41:12;;;;;;;1999.90;999.90;;;9.00;99.90;;;;;;5099485;28;20039;-81
2023/04/19 02:43:38;;;;;;;1999.90;999.90;;;9.00;99.90;;;;;;5099378;28;20040;-81
2023/04/19 02:46:03;;;;;;;1999.90;999.90;;;9.00;99.90;;;;;;5095456;28;20123;-80
2023/04/19 02:48:29;;;;;;;1999.90;999.90;;;8.90;99.90;;;;;;5078899;28;20452;-82
2023/04/19 02:50:54;;;;;;;1999.90;999.90;;;8.90;99.90;;;;;;5097934;28;20043;-81
2023/04/19 02:53:20;;;;;;;1999.90;999.90;;;8.90;99.90;;;;;;5080131;28;20033;-81
2023/04/19 02:55:45;;;;;;;1999.90;999.90;;;8.80;99.90;;;;;;5079170;28;20413;-80
2023/04/19 02:58:11;;;;;;;1999.90;999.90;;;8.90;99.90;;;;;;5079777;28;20790;-81
2023/04/19 03:00:37;;;;;;;1999.90;999.90;;;8.80;99.90;;;;;;5079586;28;20043;-81
2023/04/19 03:03:06;;;;;;;1999.90;999.90;;;8.80;99.90;;;;;;5098091;28;20037;-80
2023/04/19 03:05:31;;;;;;;1999.90;999.90;;;8.80;99.90;;;;;;5078786;28;20094;-81
2023/04/19 03:07:57;;;;;;;1999.90;999.90;;;8.70;99.90;;;;;;5082770;28;20101;-81
2023/04/19 03:10:23;;;;;;;1999.90;999.90;;;8.80;99.90;;;;;;5099909;28;20043;-81
2023/04/19 03:12:49;;;;;;;1999.90;999.90;;;8.60;99.90;;;;;;5118451;28;20032;-81
2023/04/19 03:15:14;;;;;;;1999.90;999.90;;;8.60;99.90;;;;;;5099556;28;20028;-82
2023/04/19 03:17:40;;;;;;;1999.90;999.90;;;8.50;99.90;;;;;;5083063;28;20064;-81
2023/04/19 03:20:12;;;;;;;1999.90;999.90;;;8.50;99.90;;;;;;5079438;28;20032;-81
2023/04/19 03:22:38;;;;;;;1999.90;999.90;;;8.40;99.90;;;;;;5079316;28;20060;-81
2023/04/19 03:25:05;;;;;;;1999.90;999.90;;;8.30;99.90;;;;;;5097134;28;20048;-80
2023/04/19 03:27:33;;;;;;;1999.90;999.90;;;8.20;99.90;;;;;;5094133;28;20040;-81
2023/04/19 03:29:59;;;;;;;1999.90;999.90;;;8.10;99.90;;;;;;5084400;28;20454;-81
2023/04/19 03:32:24;;;;;;;1999.90;999.90;;;8.00;99.90;;;;;;5097532;28;20043;-81
2023/04/19 03:34:50;;;;;;;1999.90;999.90;;;7.90;99.90;;;;;;5078583;28;20078;-81
2023/04/19 03:37:15;;;;;;;1999.90;999.90;;;7.80;99.90;;;;;;5105191;28;20040;-82
2023/04/19 03:39:41;;;;;;;1999.90;999.90;;;7.70;99.90;;;;;;5118008;28;20440;-81
2023/04/19 03:42:06;;;;;;;1999.90;999.90;;;7.70;99.90;;;;;;5099289;28;20489;-82
2023/04/19 03:44:32;;;;;;;1999.90;999.90;;;7.50;99.90;;;;;;5099374;28;20524;-81
2023/04/19 03:46:58;;;;;;;1999.90;999.90;;;7.50;99.90;;;;;;5099146;28;20504;-81
2023/04/19 03:49:24;;;;;;;1999.90;999.90;;;7.40;99.90;;;;;;5099257;28;20036;-81
2023/04/19 03:51:49;;;;;;;1999.90;999.90;;;7.20;99.90;;;;;;5099142;28;20386;-81
2023/04/19 03:54:15;;;;;;;1999.90;999.90;;;7.20;99.90;;;;;;5098608;28;20120;-81
2023/04/19 03:56:41;;;;;;;1999.90;999.90;;;7.10;99.90;;;;;;5099173;28;20079;-81
2023/04/19 03:59:07;;;;;;;1999.90;999.90;;;7.00;99.90;;;;;;5099072;28;20036;-81
2023/04/19 04:01:33;;;;;;;1999.90;999.90;;;6.90;99.90;;;;;;5098939;28;20077;-81
2023/04/19 04:03:58;;;;;;;1999.90;999.90;;;6.80;99.90;;;;;;5097750;28;20085;-80
2023/04/19 04:06:25;;;;;;;1999.90;999.90;;;6.70;99.90;;;;;;5101100;28;20514;-78
2023/04/19 04:08:51;;;;;;;1999.90;999.90;;;6.60;99.90;;;;;;5101202;28;20031;-78
2023/04/19 04:11:16;;;;;;;1999.90;999.90;;;6.60;99.90;;;;;;5120220;28;20035;-78
2023/04/19 04:13:42;;;;;;;1999.90;999.90;;;6.50;99.90;;;;;;5101597;28;20150;-79
2023/04/19 04:16:08;;;;;;;1999.90;999.90;;;6.60;99.90;;;;;;5101193;28;20413;-79
2023/04/19 04:18:33;;;;;;;1999.90;999.90;;;6.60;99.90;;;;;;5101785;28;20028;-78
2023/04/19 04:20:59;;;;;;;1999.90;999.90;;;6.60;99.90;;;;;;5101528;28;20078;-79
2023/04/19 04:23:25;;;;;;;1999.90;999.90;;;6.60;99.90;;;;;;5101432;28;20024;-78
2023/04/19 04:26:00;;;;;;;1999.90;999.90;;;6.60;99.90;;;;;;5099974;28;20040;-79
2023/04/19 04:28:26;;;;;;;1999.90;999.90;;;6.50;99.90;;;;;;5117565;28;20111;-80
2023/04/19 04:30:56;;;;;;;1999.90;999.90;;;6.50;99.90;;;;;;5080474;28;20051;-79
2023/04/19 04:33:25;;;;;;;1999.90;999.90;;;6.50;99.90;;;;;;5090479;28;20036;-81
2023/04/19 04:35:52;;;;;;;1999.90;999.90;;;6.50;99.90;;;;;;5100515;28;20166;-81
2023/04/19 04:38:18;;;;;;;1999.90;999.90;;;6.50;99.90;;;;;;5120058;28;20058;-81
2023/04/19 04:40:50;;;;;;;1999.90;999.90;;;6.40;99.90;;;;;;5097542;28;20911;-81
2023/04/19 04:43:15;;;;;;;1999.90;999.90;;;6.30;99.90;;;;;;5080245;28;20474;-79
2023/04/19 04:45:43;;;;;;;1999.90;999.90;;;6.30;99.90;;;;;;5079051;28;20067;-79
2023/04/19 04:48:08;;;;;;;1999.90;999.90;;;6.30;99.90;;;;;;5081044;28;20032;-81
2023/04/19 04:50:34;;;;;;;1999.90;999.90;;;6.20;99.90;;;;;;5083338;28;20036;-80
2023/04/19 04:52:59;;;;;;;1999.90;999.90;;;6.20;99.90;;;;;;5118167;28;20084;-80
2023/04/19 04:55:25;;;;;;;1999.90;999.90;;;6.10;99.90;;;;;;5100006;28;20043;-80
2023/04/19 04:57:50;;;;;;;1999.90;999.90;;;6.10;99.90;;;;;;5118091;28;20032;-81
2023/04/19 05:00:16;;;;;;;1999.90;999.90;;;6.00;99.90;;;;;;5084254;28;20037;-80
2023/04/19 05:02:42;;;;;;;1999.90;999.90;;;6.10;99.90;;;;;;5079182;28;20062;-79
2023/04/19 05:05:10;;;;;;;1999.90;999.90;;;6.10;99.90;;;;;;5083807;28;20039;-81
2023/04/19 05:07:35;;;;;;;1999.90;999.90;;;6.10;99.90;;;;;;5099578;28;20109;-81
2023/04/19 05:10:01;;;;;;;1999.90;999.90;;;6.10;99.90;;;;;;5099219;28;20078;-80
2023/04/19 05:12:26;;;;;;;1999.90;999.90;;;6.10;99.90;;;;;;5117217;28;20032;-81
2023/04/19 05:14:52;;;;;;;1999.90;999.90;;;6.10;99.90;;;;;;5096802;28;20031;-80
2023/04/19 05:17:18;;;;;;;1999.90;999.90;;;6.10;99.90;;;;;;5094734;28;20028;-81
2023/04/19 05:19:43;;;;;;;1999.90;999.90;;;6.20;99.90;;;;;;5097868;28;20518;-80
2023/04/19 05:22:09;;;;;;;1999.90;999.90;;;6.20;99.90;;;;;;5097396;28;20036;-82
2023/04/19 05:24:37;;;;;;;1999.90;999.90;;;6.20;99.90;;;;;;5078014;28;20124;-81
2023/04/19 05:27:03;;;;;;;1999.90;999.90;;;6.30;99.90;;;;;;5097248;28;20895;-82
2023/04/19 05:29:28;;;;;;;1999.90;999.90;;;6.40;99.90;;;;;;5080006;28;20036;-82
2023/04/19 05:31:54;;;;;;;1999.90;999.90;;;6.50;99.90;;;;;;5097839;28;20516;-82
2023/04/19 05:34:23;;;;;;;1999.90;999.90;;;6.70;99.90;;;;;;5099809;28;20029;-82
2023/04/19 05:36:48;;;;;;;1999.90;999.90;;;6.70;99.90;;;;;;5081074;28;20028;-81
2023/04/19 05:39:14;;;;;;;1999.90;999.90;;;6.80;99.90;;;;;;5099803;28;20037;-81
2023/04/19 05:41:39;;;;;;;1999.90;999.90;;;6.80;99.90;;;;;;5080065;28;20063;-79
2023/04/19 05:44:05;;;;;;;1999.90;999.90;;;7.00;99.90;;;;;;5078507;28;20089;-80
2023/04/19 05:46:31;;;;;;;1999.90;999.90;;;7.10;99.90;;;;;;5096778;28;20041;-80
2023/04/19 05:48:57;;;;;;;1999.90;999.90;;;7.20;99.90;;;;;;5097048;28;20033;-80
2023/04/19 05:51:22;;;;;;;1999.90;999.90;;;7.30;99.90;;;;;;5097469;28;20032;-81
2023/04/19 05:53:48;;;;;;;1999.90;999.90;;;7.40;99.90;;;;;;5078959;28;20082;-80
2023/04/19 05:56:13;;;;;;;1999.90;999.90;;;7.60;99.90;;;;;;5097059;28;20025;-81
2023/04/19 05:58:39;;;;;;;1999.90;999.90;;;7.70;99.90;;;;;;5077617;28;20371;-80
2023/04/19 06:01:05;;;;;;;1999.90;999.90;;;7.80;99.90;;;;;;5079639;28;20028;-80
2023/04/19 06:03:32;;;;;;;1999.90;999.90;;;7.80;99.90;;;;;;5077621;28;20029;-80
2023/04/19 06:05:58;;;;;;;1999.90;999.90;;;7.90;99.90;;;;;;5095445;28;20037;-80
2023/04/19 06:08:23;;;;;;;1999.90;999.90;;;8.00;99.90;;;;;;5096409;28;20028;-80
2023/04/19 06:10:49;;;;;;;1999.90;999.90;;;8.00;99.90;;;;;;5095944;28;20044;-78
2023/04/19 06:13:15;;;;;;;1999.90;999.90;;;8.10;99.90;;;;;;5076593;28;20120;-79
2023/04/19 06:15:40;;;;;;;1999.90;999.90;;;8.20;99.90;;;;;;5094752;28;20037;-78
2023/04/19 06:18:09;;;;;;;1999.90;999.90;;;8.20;99.90;;;;;;5094455;28;20032;-78
2023/04/19 06:20:38;;;;;;;1999.90;999.90;;;8.30;99.90;;;;;;5076458;28;20028;-78
2023/04/19 06:23:04;;;;;;;1999.90;999.90;;;8.30;99.90;;;;;;5094852;28;20028;-78
2023/04/19 06:25:30;;;;;;;1999.90;999.90;;;8.50;99.90;;;;;;5075966;28;20043;-78
2023/04/19 06:27:55;;;;;;;1999.90;999.90;;;8.60;99.90;;;;;;5097832;28;20043;-78
2023/04/19 06:30:21;;;;;;;1999.90;999.90;;;8.70;99.90;;;;;;5080066;28;20036;-81
2023/04/19 06:32:47;;;;;;;1999.90;999.90;;;9.00;99.90;;;;;;5098213;28;20028;-77
2023/04/19 06:35:13;;;;;;;1999.90;999.90;;;9.10;99.90;;;;;;5079311;28;20068;-76
2023/04/19 06:37:38;;;;;;;1999.90;999.90;;;9.30;99.90;;;;;;5098052;28;20043;-76
2023/04/19 06:40:07;;;;;;;1999.90;999.90;;;9.60;99.90;;;;;;5098193;28;20043;-76
2023/04/19 06:42:36;;;;;;;1999.90;999.90;;;9.80;99.90;;;;;;5098036;28;20032;-77
2023/04/19 06:45:01;;;;;;;1999.90;999.90;;;10.00;99.90;;;;;;5097465;28;20040;-77
2023/04/19 06:47:28;;;;;;;1999.90;999.90;;;10.10;99.90;;;;;;5097937;28;20037;-76
2023/04/19 06:49:54;;;;;;;1999.90;999.90;;;10.30;99.90;;;;;;5097796;28;20025;-77
2023/04/19 06:52:20;;;;;;;1999.90;999.90;;;10.40;99.90;;;;;;5078812;28;20032;-77
2023/04/19 06:54:48;;;;;;;1999.90;999.90;;;10.40;99.90;;;;;;5097647;28;20104;-77
2023/04/19 06:57:13;;;;;;;1999.90;999.90;;;10.20;99.90;;;;;;5079640;28;20550;-77
2023/04/19 06:59:39;;;;;;;1999.90;999.90;;;10.30;99.90;;;;;;5097808;28;20139;-78
2023/04/19 07:02:05;;;;;;;1999.90;999.90;;;10.50;99.90;;;;;;5097975;28;20545;-77
2023/04/19 07:04:31;;;;;;;1999.90;999.90;;;10.80;99.90;;;;;;5097665;28;20034;-77
2023/04/19 07:06:56;;;;;;;1999.90;999.90;;;11.00;99.90;;;;;;5079055;28;20516;-78
2023/04/19 07:09:22;;;;;;;1999.90;999.90;;;10.90;99.90;;;;;;5097942;28;20424;-78
2023/04/19 07:11:49;;;;;;;1999.90;999.90;;;11.00;99.90;;;;;;5079256;28;20035;-77
2023/04/19 07:14:15;;;;;;;1999.90;999.90;;;11.10;99.90;;;;;;5097371;28;20021;-77
2023/04/19 07:16:40;;;;;;;1999.90;999.90;;;11.20;99.90;;;;;;5079068;28;20040;-77
2023/04/19 07:19:06;;;;;;;1999.90;999.90;;;11.30;99.90;;;;;;5097453;28;20036;-79
2023/04/19 07:21:33;;;;;;;1999.90;999.90;;;11.30;99.90;;;;;;5079057;28;20120;-78
2023/04/19 07:23:59;;;;;;;1999.90;999.90;;;11.40;99.90;;;;;;5097263;28;20025;-78
2023/04/19 07:26:25;;;;;;;1999.90;999.90;;;11.40;99.90;;;;;;5097231;28;20040;-78
2023/04/19 07:28:50;;;;;;;1999.90;999.90;;;11.40;99.90;;;;;;5097275;28;20067;-78
2023/04/19 07:31:17;;;;;;;1999.90;999.90;;;11.50;99.90;;;;;;5097423;28;20032;-79
2023/04/19 07:33:43;;;;;;;1999.90;999.90;;;11.60;99.90;;;;;;5097333;28;20482;-78
2023/04/19 07:36:09;;;;;;;1999.90;999.90;;;11.60;99.90;;;;;;5078367;28;20033;-78
2023/04/19 07:38:35;;;;;;;1999.90;999.90;;;11.70;99.90;;;;;;5096194;28;20148;-78
2023/04/19 07:41:01;;;;;;;1999.90;999.90;;;12.00;99.90;;;;;;5097166;28;20158;-79
2023/04/19 07:43:29;;;;;;;1999.90;999.90;;;11.90;99.90;;;;;;5078685;28;20391;-77
2023/04/19 07:45:54;;;;;;;1999.90;999.90;;;11.80;99.90;;;;;;5096394;28;20076;-78
2023/04/19 07:48:20;;;;;;;1999.90;999.90;;;11.80;99.90;;;;;;5078720;28;20144;-78
2023/04/19 07:50:46;;;;;;;1999.90;999.90;;;12.00;99.90;;;;;;5078516;28;20767;-78
2023/04/19 07:53:11;;;;;;;1999.90;999.90;;;12.10;99.90;;;;;;5078415;28;20071;-77
2023/04/19 07:55:37;;;;;;;1999.90;999.90;;;12.10;99.90;;;;;;5096440;28;20091;-79
2023/04/19 07:58:02;;;;;;;1999.90;999.90;;;12.20;99.90;;;;;;5078838;28;20024;-79
2023/04/19 08:00:33;;;;;;;1999.90;999.90;;;12.30;99.90;;;;;;5096945;28;20037;-79
2023/04/19 08:02:59;;;;;;;1999.90;999.90;;;12.50;99.90;;;;;;5097351;28;20465;-79
2023/04/19 08:05:25;;;;;;;1999.90;999.90;;;12.70;99.90;;;;;;5078274;28;20048;-77
2023/04/19 08:07:52;;;;;;;1999.90;999.90;;;12.90;99.90;;;;;;5096697;28;20025;-78
2023/04/19 08:10:17;;;;;;;1999.90;999.90;;;13.10;99.90;;;;;;5096830;28;20520;-78
2023/04/19 08:12:43;;;;;;;1999.90;999.90;;;13.00;99.90;;;;;;5098079;28;20040;-78
2023/04/19 08:15:09;;;;;;;1999.90;999.90;;;12.70;99.90;;;;;;5095874;28;20472;-78
2023/04/19 08:17:34;;;;;;;1999.90;999.90;;;12.50;99.90;;;;;;5117021;28;20028;-79
2023/04/19 08:20:00;;;;;;;1999.90;999.90;;;12.40;99.90;;;;;;5098485;28;20098;-78
2023/04/19 08:22:25;;;;;;;1999.90;999.90;;;12.30;99.90;;;;;;5117217;28;20028;-79
2023/04/19 08:24:52;;;;;;;1999.90;999.90;;;12.30;99.90;;;;;;5098318;28;20042;-79
2023/04/19 08:27:18;;;;;;;1999.90;999.90;;;12.50;99.90;;;;;;5114053;28;20044;-79
2023/04/19 08:29:44;;;;;;;1999.90;999.90;;;12.50;99.90;;;;;;5097577;28;20493;-79
2023/04/19 08:32:11;;;;;;;1999.90;999.90;;;12.40;99.90;;;;;;5079323;28;20786;-80
2023/04/19 08:34:40;;;;;;;1999.90;999.90;;;12.30;99.90;;;;;;5078088;28;20064;-79
2023/04/19 08:37:06;;;;;;;1999.90;999.90;;;12.20;99.90;;;;;;5115611;28;20164;-80
2023/04/19 08:39:32;;;;;;;1999.90;999.90;;;12.20;99.90;;;;;;5117585;28;20445;-78
2023/04/19 08:42:09;;;;;;;1999.90;999.90;;;12.30;99.90;;;;;;5098471;28;20116;-78
2023/04/19 08:44:38;;;;;;;1999.90;999.90;;;12.60;99.90;;;;;;5113155;28;20794;-79
2023/04/19 08:47:05;;;;;;;1999.90;999.90;;;12.70;99.90;;;;;;5116515;28;20045;-78
2023/04/19 08:49:35;;;;;;;1999.90;999.90;;;12.90;99.90;;;;;;5116495;27;20027;-78
2023/04/19 08:52:01;;;;;;;1999.90;999.90;;;13.20;99.90;;;;;;5116360;28;20028;-78
2023/04/19 08:54:28;;;;;;;1999.90;999.90;;;13.30;99.90;;;;;;5116241;28;20036;-78
2023/04/19 08:56:57;;;;;;;1999.90;999.90;;;13.40;99.90;;;;;;5097924;28;20036;-79
2023/04/19 08:59:22;;;;;;;1999.90;999.90;;;13.60;99.90;;;;;;5115221;28;20577;-80
2023/04/19 09:01:48;;;;;;;1999.90;999.90;;;13.80;99.90;;;;;;5097378;28;20113;-81
2023/04/19 09:04:14;;;;;;;1999.90;999.90;;;13.90;99.90;;;;;;5099892;28;20072;-79
2023/04/19 09:06:40;;;;;;;1999.90;999.90;;;13.90;99.90;;;;;;5092286;28;20116;-80
2023/04/19 09:09:41;;;;;;;1999.90;999.90;;;13.70;99.90;;;;;;5086951;28;20489;-79
2023/04/19 09:12:16;;;;;;;1999.90;999.90;;;13.40;99.90;;;;;;5045250;28;20048;-79
2023/04/19 09:14:46;;;;;;;1999.90;999.90;;;13.30;99.90;;;;;;5096948;28;20124;-79
2023/04/19 09:17:15;;;;;;;1999.90;999.90;;;13.00;99.90;;;;;;5109382;28;20033;-79
2023/04/19 09:19:45;;;;;;;1999.90;999.90;;;12.90;99.90;;;;;;5095906;28;20122;-79
2023/04/19 09:22:13;;;;;;;1999.90;999.90;;;12.70;99.90;;;;;;5116282;28;20028;-79
2023/04/19 09:24:39;;;;;;;1999.90;999.90;;;12.60;99.90;;;;;;5091367;28;20032;-80
2023/04/19 09:27:04;;;;;;;1999.90;999.90;;;12.60;99.90;;;;;;5097477;28;20036;-80
2023/04/19 09:29:30;;;;;;;1999.90;999.90;;;12.30;99.90;;;;;;5116212;28;20093;-78
2023/04/19 09:31:58;;;;;;;1999.90;999.90;;;12.30;99.90;;;;;;5115796;28;20043;-78
2023/04/19 09:34:24;;;;;;;1999.90;999.90;;;12.30;99.90;;;;;;5115331;28;20170;-79
2023/04/19 09:36:50;;;;;;;1999.90;999.90;;;12.30;99.90;;;;;;5097329;28;20169;-79
2023/04/19 09:39:30;;;;;;;1999.90;999.90;;;12.20;99.90;;;;;;5097208;28;20120;-79
2023/04/19 09:41:57;;;;;;;1999.90;999.90;;;12.10;99.90;;;;;;5097412;28;20126;-79
2023/04/19 09:44:22;;;;;;;1999.90;999.90;;;12.10;99.90;;;;;;5085032;28;20406;-79
2023/04/19 09:46:50;;;;;;;1999.90;999.90;;;12.20;99.90;;;;;;5095089;28;20040;-79
2023/04/19 09:49:23;;;;;;;1999.90;999.90;;;12.20;99.90;;;;;;5076566;28;20410;-79
2023/04/19 09:51:50;;;;;;;1999.90;999.90;;;12.30;99.90;;;;;;5095636;28;20039;-78
2023/04/19 09:54:19;;;;;;;1999.90;999.90;;;12.20;99.90;;;;;;5077268;28;20119;-78
2023/04/19 09:56:44;;;;;;;1999.90;999.90;;;12.20;99.90;;;;;;5095323;28;20032;-79
2023/04/19 09:59:11;;;;;;;1999.90;999.90;;;12.20;99.90;;;;;;5095342;28;20087;-80
2023/04/19 10:01:47;;;;;;;1999.90;999.90;;;12.20;99.90;;;;;;5094358;28;20040;-78
2023/04/19 10:04:21;;;;;;;1999.90;999.90;;;12.20;99.90;;;;;;5094719;28;20489;-78
2023/04/19 10:06:52;;;;;;;1999.90;999.90;;;12.20;99.90;;;;;;5093482;22;20110;-77
2023/04/19 10:09:18;;;;;;;1999.90;999.90;;;12.20;99.90;;;;;;5075123;28;20045;-78
2023/04/19 10:11:48;;;;;;;1999.90;999.90;;;12.30;99.90;;;;;;5041021;28;20084;-77
2023/04/19 10:14:15;;;;;;;1999.90;999.90;;;12.30;99.90;;;;;;5050083;28;20037;-77
2023/04/19 10:16:41;;;;;;;1999.90;999.90;;;12.10;99.90;;;;;;5059279;28;20040;-77
2023/04/19 10:19:15;;;;;;;1999.90;999.90;;;12.00;99.90;;;;;;5070270;28;20445;-77
2023/04/19 10:21:42;;;;;;;1999.90;999.90;;;11.90;99.90;;;;;;5074158;28;20029;-77
2023/04/19 10:24:08;;;;;;;1999.90;999.90;;;11.90;99.90;;;;;;5038080;28;20041;-77
2023/04/19 10:27:11;;;;;;;1999.90;999.90;;;11.90;99.90;;;;;;5035992;28;20037;-77
2023/04/19 10:30:04;;;;;;;1999.90;999.90;;;11.80;99.90;;;;;;5060740;28;20034;-77
2023/04/19 10:32:37;;;;;;;1999.90;999.90;;;11.80;99.90;;;;;;5065359;28;20053;-77
2023/04/19 10:35:08;;;;;;;1999.90;999.90;;;11.80;99.90;;;;;;5071262;28;20469;-77
2023/04/19 10:37:34;;;;;;;1999.90;999.90;;;11.70;99.90;;;;;;5074386;28;20025;-77
2023/04/19 10:39:59;;;;;;;1999.90;999.90;;;11.60;99.90;;;;;;5074224;28;20037;-76
2023/04/19 10:43:03;;;;;;;1999.90;999.90;;;11.60;99.90;;;;;;5074615;28;20033;-77
2023/04/19 10:45:33;;;;;;;1999.90;999.90;;;11.40;99.90;;;;;;5073893;28;20575;-77
2023/04/19 10:48:02;;;;;;;1999.90;999.90;;;11.30;99.90;;;;;;5070474;28;20135;-77
2023/04/19 10:50:27;;;;;;;1999.90;999.90;;;11.30;99.90;;;;;;5041526;28;20511;-77
2023/04/19 10:52:53;;;;;;;1999.90;999.90;;;11.30;99.90;;;;;;5063482;28;20037;-77
2023/04/19 10:55:19;;;;;;;1999.90;999.90;;;11.20;99.90;;;;;;5038476;28;20056;-78
2023/04/19 10:58:04;;;;;;;1999.90;999.90;;;11.10;99.90;;;;;;5058503;28;20037;-80
2023/04/19 11:00:34;;;;;;;1999.90;999.90;;;11.10;99.90;;;;;;5041128;28;20037;-79
2023/04/19 11:03:39;;;;;;;1999.90;999.90;;;11.10;99.90;;;;;;5046099;28;20127;-81
2023/04/19 11:06:16;;;;;;;1999.90;999.90;;;11.20;99.90;;;;;;5052250;28;20053;-80
2023/04/19 11:08:43;;;;;;;1999.90;999.90;;;11.10;99.90;;;;;;5048162;28;20106;-79
2023/04/19 11:11:09;;;;;;;1999.90;999.90;;;11.10;99.90;;;;;;5041371;28;20521;-79
2023/04/19 11:13:36;;;;;;;1999.90;999.90;;;11.00;99.90;;;;;;5075482;28;20756;-79
2023/04/19 11:16:07;;;;;;;1999.90;999.90;;;11.00;99.90;;;;;;5062499;28;20044;-79
2023/04/19 11:18:32;;;;;;;1999.90;999.90;;;11.10;99.90;;;;;;5062366;28;20040;-80
2023/04/19 11:21:00;;;;;;;1999.90;999.90;;;11.10;99.90;;;;;;5080984;28;20045;-79
2023/04/19 11:23:26;;;;;;;1999.90;999.90;;;11.10;99.90;;;;;;5081321;28;20025;-79
2023/04/19 11:25:52;;;;;;;1999.90;999.90;;;11.20;99.90;;;;;;5062099;28;20832;-80
2023/04/19 11:28:17;;;;;;;1999.90;999.90;;;11.10;99.90;;;;;;5081105;28;20064;-79
2023/04/19 11:30:44;;;;;;;1999.90;999.90;;;11.10;99.90;;;;;;5062804;28;20083;-80
2023/04/19 11:33:11;;;;;;;1999.90;999.90;;;11.20;99.90;;;;;;5063331;28;20512;-79
2023/04/19 11:35:37;;;;;;;1999.90;999.90;;;11.20;99.90;;;;;;5063197;28;20120;-79
2023/04/19 11:38:05;;;;;;;1999.90;999.90;;;11.30;99.90;;;;;;5063166;28;20029;-79
2023/04/19 11:40:31;;;;;;;1999.90;999.90;;;11.30;99.90;;;;;;5082453;28;20040;-80
2023/04/19 11:42:59;;;;;;;1999.90;999.90;;;11.20;99.90;;;;;;5099422;28;20036;-79
2023/04/19 11:45:28;;;;;;;1999.90;999.90;;;11.40;99.90;;;;;;5086397;28;20111;-80
2023/04/19 11:47:54;;;;;;;1999.90;999.90;;;11.60;99.90;;;;;;5062847;28;20124;-80
2023/04/19 11:50:40;;;;;;;1999.90;999.90;;;11.60;99.90;;;;;;5062069;28;20811;-80
2023/04/19 11:53:13;;;;;;;1999.90;999.90;;;11.70;99.90;;;;;;5062418;28;20040;-80
2023/04/19 11:55:45;;;;;;;1999.90;999.90;;;11.90;99.90;;;;;;5061792;28;20454;-80
2023/04/19 11:58:29;;;;;;;1999.90;999.90;;;11.90;99.90;;;;;;5063912;28;20068;-80
2023/04/19 12:01:06;;;;;;;1999.90;999.90;;;11.90;99.90;;;;;;5080867;28;20022;-80
2023/04/19 12:03:33;;;;;;;1999.90;999.90;;;12.00;99.90;;;;;;5062407;28;20033;-80